Latest Weather Observations for Penrith

IDN60801

Issued at 5:32 am EST Wednesday 29 July 2015 (issued every 30 minutes, with the page automatically refreshed every 10 minutes)

About weather observations | Map of weather stations | Latest weather observations for NSW | Other Formats
Station Details ID: 067113 Name: PENRITH LAKES AWS Lat: -33.72 Lon: 150.68 Height: 24.7 m
Data from the previous 72 hours. | See also: Recent months at Penrith
Date/Time
EST
Temp
°C
App
Temp
°C
Dew
Point
Rel
Hum
%
Delta-T
°C
Wind Press
QNH
hPa
Press
MSL
hPa
Rain
since 9 am
mm
Dir
 
Spd
km/h
Gust
km/h
Spd
kts
Gust
kts
29/05:30am 3.3 1.0 3.0 98 0.1 W 4 6 2 3 - - 0.0
29/05:00am 3.6 1.4 3.2 97 0.2 NNE 4 4 2 2 - - 0.0
29/04:30am 3.8 1.6 3.4 97 0.2 N 4 4 2 2 - - 0.0
29/04:00am 3.6 1.0 3.2 97 0.2 N 6 7 3 4 - - 0.0
29/03:30am 4.7 3.3 3.8 94 0.4 CALM 0 0 0 0 - - 0.0
29/03:00am 5.2 2.8 4.3 94 0.4 W 6 6 3 3 - - 0.0
29/02:30am 5.2 4.0 4.6 96 0.3 CALM 0 0 0 0 - - 0.0
29/02:00am 5.2 3.2 4.3 94 0.4 ESE 4 6 2 3 - - 0.0
29/01:30am 5.3 4.1 4.4 94 0.4 CALM 0 0 0 0 - - 0.0
29/01:00am 5.2 3.9 3.9 91 0.5 CALM 0 0 0 0 - - 0.0
29/12:30am 5.5 4.2 4.0 90 0.6 CALM 0 0 0 0 - - 0.0
29/12:00am 5.5 3.4 3.8 89 0.7 SSW 4 6 2 3 - - 0.0
 
Date/Time
EST
Temp
°C
App
Temp
°C
Dew
Point
Rel
Hum
%
Delta-T
°C
Wind Press
QNH
hPa
Press
MSL
hPa
Rain
since 9 am
mm
Dir
 
Spd
km/h
Gust
km/h
Spd
kts
Gust
kts
28/11:30pm 6.4 4.4 4.4 87 0.9 S 4 6 2 3 - - 0.0
28/11:00pm 6.1 4.0 3.9 86 0.9 SSE 4 4 2 2 - - 0.0
28/10:30pm 6.5 4.2 5.0 90 0.7 SSE 6 6 3 3 - - 0.0
28/10:00pm 7.0 5.4 4.7 85 1.0 W 2 6 1 3 - - 0.0
28/09:30pm 7.3 6.2 5.3 87 0.9 CALM 0 2 0 1 - - 0.0
28/09:00pm 8.2 6.3 5.0 80 1.4 W 4 6 2 3 - - 0.0
28/08:30pm 8.7 6.0 3.9 72 2.1 W 7 11 4 6 - - 0.0
28/08:00pm 8.9 6.4 3.7 70 2.3 WNW 6 9 3 5 - - 0.0
28/07:30pm 9.9 7.8 4.1 67 2.6 W 4 6 2 3 - - 0.0
28/07:00pm 9.6 7.2 5.2 74 2.0 NW 7 9 4 5 - - 0.0
28/06:30pm 9.2 6.7 3.8 69 2.4 SW 6 7 3 4 - - 0.0
28/06:00pm 11.3 9.9 3.8 60 3.3 CALM 0 0 0 0 - - 0.0
28/05:30pm 13.0 11.2 3.4 52 4.3 SSE 2 2 1 1 - - 0.0
28/05:00pm 13.7 11.2 1.7 44 5.2 WSW 4 6 2 3 - - 0.0
28/04:30pm 15.6 12.5 1.4 38 6.2 SSW 7 11 4 6 - - 0.0
28/04:00pm 16.2 12.2 0.7 35 6.7 SSW 11 15 6 8 - - 0.0
28/03:30pm 16.4 12.1 0.9 35 6.8 S 13 19 7 10 - - 0.0
28/03:00pm 16.8 12.6 1.7 36 6.7 S 13 19 7 10 - - 0.0
28/02:30pm 16.9 12.7 1.4 35 6.9 SSE 13 19 7 10 - - 0.0
28/02:00pm 16.8 12.5 0.9 34 7.0 S 13 19 7 10 - - 0.0
28/01:30pm 16.6 12.5 -0.1 32 7.1 S 11 19 6 10 - - 0.0
28/01:00pm 16.7 13.1 0.8 34 6.9 SW 9 15 5 8 - - 0.0
28/12:30pm 16.2 13.4 2.9 41 6.0 NNW 7 13 4 7 - - 0.0
28/12:00pm 15.1 12.9 1.3 39 6.0 WNW 2 7 1 4 - - 0.0
28/11:30am 14.0 11.7 2.6 46 5.0 NNE 4 6 2 3 - - 0.0
28/11:00am 12.7 10.4 2.8 51 4.4 SSW 4 6 2 3 - - 0.0
28/10:30am 11.7 10.2 3.2 56 3.7 CALM 0 4 0 2 - - 0.0
28/10:00am 9.4 7.5 2.9 64 2.8 W 2 4 1 2 - - 0.0
28/09:30am 9.4 7.9 3.2 65 2.7 CALM 0 0 0 0 - - 0.0
28/09:00am 7.3 5.8 3.2 75 1.7 CALM 0 0 0 0 - - 0.0
28/08:30am 5.5 3.7 3.2 85 1.0 N 2 6 1 3 - - 0.0
28/08:00am 4.4 2.9 3.2 92 0.5 CALM 0 0 0 0 - - 0.0
28/07:30am 3.0 1.4 2.6 97 0.2 CALM 0 2 0 1 - - 0.0
28/07:00am 1.8 -0.8 1.1 95 0.3 E 4 6 2 3 - - 0.0
28/06:30am 2.3 0.6 1.6 95 0.3 CALM 0 0 0 0 - - 0.0
28/06:00am 2.2 -0.4 1.2 93 0.4 NNE 4 6 2 3 - - 0.0
28/05:30am 1.9 0.1 1.0 94 0.3 CALM 0 0 0 0 - - 0.0
28/05:00am 2.3 -0.2 1.4 94 0.3 E 4 6 2 3 - - 0.0
28/04:30am 2.8 1.0 1.3 90 0.6 CALM 0 2 0 1 - - 0.0
28/04:00am 3.0 0.5 1.7 91 0.5 W 4 6 2 3 - - 0.0
28/03:30am 3.2 0.7 1.3 87 0.7 SE 4 6 2 3 - - 0.0
28/03:00am 3.3 0.7 1.0 85 0.9 ESE 4 7 2 4 - - 0.0
28/02:30am 3.6 0.9 0.3 79 1.2 N 4 4 2 2 - - 0.0
28/02:00am 3.3 0.5 -0.3 77 1.3 NE 4 4 2 2 - - 0.0
28/01:30am 4.2 1.5 0.5 77 1.4 NNE 4 6 2 3 - - 0.0
28/01:00am 4.6 2.1 1.3 79 1.3 S 4 7 2 4 - - 0.0
28/12:30am 5.2 2.1 0.4 71 1.8 NE 6 7 3 4 - - 0.0
28/12:00am 5.3 2.3 0.7 72 1.8 SE 6 9 3 5 - - 0.0
 
Date/Time
EST
Temp
°C
App
Temp
°C
Dew
Point
Rel
Hum
%
Delta-T
°C
Wind Press
QNH
hPa
Press
MSL
hPa
Rain
since 9 am
mm
Dir
 
Spd
km/h
Gust
km/h
Spd
kts
Gust
kts
27/11:30pm 5.2 3.1 1.5 77 1.5 NNE 2 6 1 3 - - 0.0
27/11:00pm 5.5 3.1 2.2 79 1.3 WNW 4 6 2 3 - - 0.0
27/10:30pm 5.8 2.9 1.2 72 1.8 NNW 6 7 3 4 - - 0.0
27/10:00pm 7.3 5.1 1.0 64 2.5 NNE 2 4 1 2 - - 0.0
27/09:30pm 8.0 5.2 -0.2 56 3.2 SE 4 7 2 4 - - 0.0
27/09:00pm 8.4 5.5 -0.9 52 3.6 SE 4 6 2 3 - - 0.0
27/08:30pm 8.2 5.0 -0.5 54 3.4 S 6 11 3 6 - - 0.0
27/08:00pm 8.8 6.4 -0.2 53 3.6 S 2 4 1 2 - - 0.0
27/07:30pm 9.4 6.9 -1.0 48 4.1 N 2 4 1 2 - - 0.0
27/07:00pm 9.8 7.0 -0.4 49 4.1 NW 4 6 2 3 - - 0.0
27/06:30pm 8.5 5.5 0.5 57 3.2 WSW 6 7 3 4 - - 0.0
27/06:00pm 9.7 6.4 0.3 52 3.8 WSW 7 11 4 6 - - 0.0
27/05:30pm 10.4 7.7 0.4 50 4.1 SSW 4 6 2 3 - - 0.0
27/05:00pm 12.4 9.5 -0.8 40 5.3 SSW 4 6 2 3 - - 0.0
27/04:30pm 13.7 10.2 -1.1 36 6.0 SSW 7 11 4 6 - - 0.0
27/04:00pm 14.8 10.9 -1.7 32 6.7 SW 9 11 5 6 - - 0.0
27/03:30pm 15.1 10.3 -2.3 30 7.0 WSW 13 19 7 10 - - 0.0
27/03:00pm 15.2 10.0 -2.7 29 7.1 SW 15 19 8 10 - - 0.0
27/02:30pm 15.5 10.7 -2.9 28 7.3 WSW 13 22 7 12 - - 0.0
27/02:00pm 15.1 9.9 -2.8 29 7.1 SW 15 22 8 12 - - 0.0
27/01:30pm 15.0 10.1 -3.3 28 7.2 WSW 13 20 7 11 - - 0.0
27/01:00pm 15.0 9.8 -2.9 29 7.1 WSW 15 22 8 12 - - 0.0
27/12:30pm 14.4 9.1 -3.9 28 7.1 WSW 15 22 8 12 - - 0.0
27/12:00pm 14.1 7.4 -4.1 28 7.0 WSW 22 37 12 20 - - 0.0
27/11:30am 14.2 8.9 -3.6 29 6.9 WSW 15 20 8 11 - - 0.0
27/11:00am 13.6 7.9 -4.1 29 6.7 WSW 17 28 9 15 - - 0.0
27/10:30am 12.8 6.5 -3.9 31 6.3 SW 20 32 11 17 - - 0.0
27/10:00am 12.2 9.2 -1.7 38 5.5 E 4 6 2 3 - - 0.0
27/09:30am 9.9 7.3 1.0 54 3.7 ESE 4 6 2 3 - - 0.0
27/09:00am 8.3 5.7 1.2 61 2.9 SW 4 7 2 4 - - 0.0
27/08:30am 6.2 3.2 1.1 70 2.0 SSW 6 7 3 4 - - 0.0
27/08:00am 4.9 2.4 1.6 79 1.3 SSE 4 4 2 2 - - 0.0
27/07:30am 3.4 0.8 1.0 84 0.9 SE 4 6 2 3 - - 0.0
27/07:00am 3.2 1.3 0.6 83 1.0 CALM 0 0 0 0 - - 0.0
27/06:30am 3.1 0.4 0.5 83 1.0 S 4 6 2 3 - - 0.0
27/06:00am 3.6 1.7 0.5 80 1.2 CALM 0 0 0 0 - - 0.0
27/05:30am 4.6 2.7 0.7 76 1.5 CALM 0 0 0 0 - - 0.0
27/05:00am 4.5 2.3 -1.3 66 2.1 CALM 0 2 0 1 - - 0.0
27/04:30am 5.3 2.1 -0.5 66 2.2 NNE 6 9 3 5 - - 0.0
27/04:00am 5.9 2.4 -1.0 61 2.6 NNE 7 9 4 5 - - 0.0
27/03:30am 6.6 2.8 -0.8 59 2.8 W 9 13 5 7 - - 0.0
27/03:00am 6.9 3.4 -1.3 56 3.1 NNW 7 13 4 7 - - 0.0
27/02:30am 8.7 5.2 -2.9 44 4.3 NE 6 7 3 4 - - 0.0
27/02:00am 9.4 5.7 -3.2 41 4.7 W 7 13 4 7 - - 0.0
27/01:30am 9.4 5.3 -2.8 42 4.6 SW 9 19 5 10 - - 0.0
27/01:00am 9.7 5.6 -2.9 41 4.7 SSW 9 15 5 8 - - 0.0
27/12:30am 9.1 5.5 -1.9 46 4.2 SW 7 17 4 9 - - 0.0
27/12:00am 9.2 6.5 -2.4 44 4.4 WNW 2 6 1 3 - - 0.0
 
Date/Time
EST
Temp
°C
App
Temp
°C
Dew
Point
Rel
Hum
%
Delta-T
°C
Wind Press
QNH
hPa
Press
MSL
hPa
Rain
since 9 am
mm
Dir
 
Spd
km/h
Gust
km/h
Spd
kts
Gust
kts
26/11:30pm 9.7 6.6 -2.6 42 4.6 WSW 4 9 2 5 - - 0.0
26/11:00pm 9.9 6.9 -2.1 43 4.6 SE 4 7 2 4 - - 0.0
26/10:30pm 11.4 8.0 -2.4 38 5.3 WSW 6 13 3 7 - - 0.0
26/10:00pm 12.0 6.4 -2.6 36 5.6 W 17 32 9 17 - - 0.0
26/09:30pm 12.6 6.8 -1.7 37 5.7 SW 19 35 10 19 - - 0.0
26/09:00pm 12.9 8.6 -1.4 37 5.7 SW 11 24 6 13 - - 0.0
26/08:30pm 13.1 8.2 -0.5 39 5.6 WSW 15 32 8 17 - - 0.0
26/08:00pm 13.9 9.9 0.5 40 5.7 W 11 28 6 15 - - 0.0
26/07:30pm 13.4 10.6 2.0 46 5.0 ESE 6 11 3 6 - - 0.0
26/07:00pm 14.3 10.4 1.2 41 5.6 W 11 26 6 14 - - 0.0
26/06:30pm 14.7 10.9 1.9 42 5.6 WNW 11 24 6 13 - - 0.0
26/06:00pm 15.2 11.2 2.7 43 5.6 W 13 26 7 14 - - 0.0
26/05:33pm 15.8 8.9 2.6 41 5.9 WNW 28 50 15 27 - - 0.0
26/05:30pm 15.9 9.4 2.7 41 6.0 WNW 26 50 14 27 - - 0.0
26/05:00pm 16.4 9.8 2.1 38 6.4 WNW 26 41 14 22 - - 0.0
26/04:30pm 17.7 9.8 1.2 33 7.3 WNW 32 57 17 31 - - 0.0
26/04:00pm 18.2 11.2 1.7 33 7.4 WNW 28 50 15 27 - - 0.0
26/03:40pm 18.6 11.2 1.6 32 7.7 WNW 30 57 16 31 - - 0.0
26/03:30pm 19.0 14.2 2.4 33 7.6 WNW 17 26 9 14 - - 0.0
26/03:00pm 19.3 13.0 1.8 31 8.0 WNW 24 43 13 23 - - 0.0
26/02:30pm 19.0 11.9 1.1 30 8.0 WNW 28 50 15 27 - - 0.0
26/02:00pm 19.3 10.9 1.3 30 8.1 WNW 35 54 19 29 - - 0.0
26/01:48pm 19.7 12.6 1.2 29 8.4 WNW 28 48 15 26 - - 0.0
26/01:30pm 20.3 15.4 2.2 30 8.4 WNW 17 28 9 15 - - 0.0
26/01:00pm 19.9 14.7 2.3 31 8.1 W 19 33 10 18 - - 0.0
26/12:30pm 19.8 15.2 1.7 30 8.3 WNW 15 32 8 17 - - 0.0
26/12:00pm 19.8 15.8 2.6 32 8.0 WNW 13 19 7 10 - - 0.0
26/11:30am 19.2 14.6 1.7 31 7.9 WNW 15 26 8 14 - - 0.0
26/11:00am 18.7 12.9 2.1 33 7.6 NW 22 35 12 19 - - 0.0
26/10:30am 17.5 12.2 3.0 38 6.7 NNW 20 30 11 16 - - 0.0
26/10:00am 14.6 10.2 4.6 51 4.6 N 17 22 9 12 - - 0.0
26/09:30am 13.9 8.7 3.4 49 4.7 NNE 20 28 11 15 - - 0.0
26/09:00am 14.7 9.9 2.6 44 5.4 NNE 17 22 9 12 - - 0.0
26/08:30am 12.5 8.6 3.5 54 4.0 NNW 13 17 7 9 - - 0.0
26/08:00am 11.0 6.9 4.2 63 3.0 NNW 15 20 8 11 - - 0.0
26/07:30am 9.3 6.9 4.3 71 2.2 NNW 6 9 3 5 - - 0.0
26/07:00am 9.5 6.7 3.3 65 2.7 NNW 7 15 4 8 - - 0.0
26/06:30am 10.6 8.4 3.4 61 3.1 ESE 4 9 2 5 - - 0.0
26/06:00am 11.4 7.1 3.4 58 3.5 N 15 20 8 11 - - 0.0

Other Formats:

Comma delimited format used in spreadsheet applications
http://www.bom.gov.au/fwo/IDN60801/IDN60801.94763.axf

JavaScript Object Notation format (JSON) in row-major order
http://www.bom.gov.au/fwo/IDN60801/IDN60801.94763.json